Time;durP1;ratioP1;P1;durP2;ratioP2;P2;SDS_P1;SDS_P2;PMS_P1;PMS_P2;Temp;Humidity;BMP_temperature;BMP_pressure;BME280_temperature;BME280_humidity;BME280_pressure;Samples;Min_cycle;Max_cycle;Signal;HPM_P1;HPM_P2
2023/08/23 00:00:18;;;;;;;4.30;1.20;;;;;;;12.71;67.89;99845.08;109869;1277;22286;-59
2023/08/23 00:03:07;;;;;;;2.60;1.20;;;;;;;12.69;67.91;99842.77;110011;1282;22388;-59
2023/08/23 00:05:39;;;;;;;1.80;0.90;;;;;;;12.67;68.16;99842.84;109938;1280;22595;-59
2023/08/23 00:08:08;;;;;;;1.60;1.30;;;;;;;12.66;68.32;99840.30;109846;1276;23543;-60
2023/08/23 00:10:36;;;;;;;1.60;1.10;;;;;;;12.65;68.30;99842.25;109861;1271;99978;-59
2023/08/23 00:13:05;;;;;;;1.90;1.00;;;;;;;12.64;68.39;99839.71;109986;1281;23014;-59
2023/08/23 00:15:33;;;;;;;2.00;1.10;;;;;;;12.62;68.48;99839.44;109853;1280;100219;-59
2023/08/23 00:18:02;;;;;;;1.80;1.10;;;;;;;12.59;68.39;99838.55;109876;1280;23091;-59
2023/08/23 00:20:31;;;;;;;3.90;1.00;;;;;;;12.54;68.36;99841.83;109995;1276;23669;-59
2023/08/23 00:22:59;;;;;;;3.60;1.30;;;;;;;12.48;68.39;99840.22;109816;1276;99743;-59
2023/08/23 00:25:28;;;;;;;3.00;1.30;;;;;;;12.43;68.47;99841.38;110011;1278;22364;-60
2023/08/23 00:27:57;;;;;;;6.10;1.30;;;;;;;12.40;68.75;99842.20;109931;1276;99473;-59
2023/08/23 00:30:54;;;;;;;1.90;0.80;;;;;;;12.38;68.98;99841.11;109933;1283;22182;-60
2023/08/23 00:33:22;;;;;;;2.60;1.20;;;;;;;12.37;69.16;99840.32;109925;1277;99633;-59
2023/08/23 00:35:51;;;;;;;1.50;0.80;;;;;;;12.36;69.14;99836.36;109847;1280;22155;-60
2023/08/23 00:38:19;;;;;;;2.90;1.00;;;;;;;12.35;69.19;99837.27;109894;1280;22174;-59
2023/08/23 00:40:48;;;;;;;2.30;0.90;;;;;;;12.33;69.25;99838.09;109761;1276;99842;-60
2023/08/23 00:43:17;;;;;;;1.50;0.90;;;;;;;12.31;69.16;99837.45;109934;1279;22161;-59
2023/08/23 00:45:45;;;;;;;1.30;0.90;;;;;;;12.29;69.37;99837.22;109900;1282;100258;-59
2023/08/23 00:48:14;;;;;;;4.00;1.20;;;;;;;12.26;69.54;99839.09;110001;1276;22367;-60
2023/08/23 00:50:44;;;;;;;1.00;0.70;;;;;;;12.25;69.74;99840.34;109978;1279;22315;-59
2023/08/23 00:53:14;;;;;;;1.80;0.90;;;;;;;12.22;69.84;99841.40;109857;1279;99518;-59
2023/08/23 00:55:43;;;;;;;1.00;0.70;;;;;;;12.15;69.70;99841.79;110032;1276;23499;-59
2023/08/23 00:58:11;;;;;;;6.50;1.20;;;;;;;12.11;70.28;99841.11;109932;1276;100162;-59
2023/08/23 01:00:41;;;;;;;2.40;1.20;;;;;;;12.09;70.56;99841.39;109943;1278;22783;-59
2023/08/23 01:03:09;;;;;;;3.20;1.20;;;;;;;12.11;70.83;99836.92;109950;1276;99862;-59
2023/08/23 01:05:44;;;;;;;3.40;1.20;;;;;;;12.16;70.91;99837.72;109985;1280;22428;-59
2023/08/23 01:08:21;;;;;;;3.70;0.90;;;;;;;12.21;70.98;99836.58;110044;1277;22362;-59
2023/08/23 01:11:06;;;;;;;4.70;1.10;;;;;;;12.23;70.94;99835.95;109954;1277;99917;-59
2023/08/23 01:13:48;;;;;;;3.60;0.90;;;;;;;12.19;71.01;99834.89;109991;1281;22273;-59
2023/08/23 01:16:19;;;;;;;1.30;0.90;;;;;;;12.16;71.27;99835.79;109980;1276;99627;-59
2023/08/23 01:18:48;;;;;;;1.50;0.90;;;;;;;12.08;70.89;99842.86;110035;1277;23028;-59
2023/08/23 01:21:22;;;;;;;3.10;1.10;;;;;;;11.98;71.06;99846.48;109958;1280;99700;-59
2023/08/23 01:23:52;;;;;;;1.00;0.60;;;;;;;11.98;71.28;99851.19;110033;1277;22287;-59
2023/08/23 01:26:21;;;;;;;1.10;0.70;;;;;;;11.99;71.51;99849.41;110005;1273;22203;-59
2023/08/23 01:28:51;;;;;;;1.80;0.80;;;;;;;12.01;71.58;99850.86;109898;1270;100060;-59
2023/08/23 01:31:22;;;;;;;1.30;0.80;;;;;;;12.03;71.78;99848.33;109995;1277;22263;-59
2023/08/23 01:34:05;;;;;;;2.80;0.80;;;;;;;12.04;71.72;99846.70;109912;1276;100133;-59
2023/08/23 01:36:37;;;;;;;2.90;1.40;;;;;;;12.03;71.65;99846.95;109978;1270;22320;-60
2023/08/23 01:39:06;;;;;;;2.40;0.90;;;;;;;12.00;71.80;99840.11;110014;1276;22227;-59
2023/08/23 01:41:35;;;;;;;2.80;0.80;;;;;;;11.98;71.85;99840.56;109998;1270;23371;-59
2023/08/23 01:44:04;;;;;;;2.30;0.60;;;;;;;11.95;71.94;99842.30;109892;1280;22171;-60
2023/08/23 01:46:34;;;;;;;3.20;1.00;;;;;;;11.94;72.06;99842.69;109944;1277;99504;-59
2023/08/23 01:49:03;;;;;;;2.20;1.10;;;;;;;11.96;72.15;99848.35;110005;1276;22161;-59
2023/08/23 01:51:32;;;;;;;1.80;0.70;;;;;;;11.94;72.29;99842.50;109940;1277;99973;-59
2023/08/23 01:54:01;;;;;;;2.90;1.00;;;;;;;11.92;72.32;99850.45;110021;1276;22298;-59
2023/08/23 01:56:29;;;;;;;3.00;1.40;;;;;;;11.89;72.16;99846.09;110012;1276;22363;-60
2023/08/23 01:58:58;;;;;;;2.20;0.90;;;;;;;11.86;72.27;99850.91;109939;1276;99759;-60
2023/08/23 02:01:26;;;;;;;2.20;1.00;;;;;;;11.83;72.29;99855.19;110034;1276;22367;-59
2023/08/23 02:03:55;;;;;;;1.80;0.80;;;;;;;11.80;72.40;99859.56;109931;1273;99446;-59
2023/08/23 02:06:23;;;;;;;0.90;0.60;;;;;;;11.77;72.34;99859.89;110045;1277;22239;-59
2023/08/23 02:08:52;;;;;;;3.90;0.80;;;;;;;11.75;72.45;99858.77;109969;1270;22353;-59
2023/08/23 02:11:20;;;;;;;1.40;0.80;;;;;;;11.71;72.46;99852.69;109961;1276;99923;-59
2023/08/23 02:13:49;;;;;;;2.60;1.20;;;;;;;11.66;72.32;99855.57;109974;1277;22111;-59
2023/08/23 02:16:18;;;;;;;1.60;1.00;;;;;;;11.62;72.41;99854.04;109922;1276;100136;-59
2023/08/23 02:18:47;;;;;;;3.60;1.00;;;;;;;11.60;72.73;99855.88;110001;1276;22230;-59
2023/08/23 02:21:16;;;;;;;0.80;0.60;;;;;;;11.62;73.00;99851.05;109856;1280;99564;-59
2023/08/23 02:23:45;;;;;;;1.50;0.70;;;;;;;11.62;73.22;99851.21;109920;1280;22384;-59
2023/08/23 02:26:14;;;;;;;2.00;1.20;;;;;;;11.61;73.22;99849.70;109943;1280;23269;-59
2023/08/23 02:32:45;;;;;;;1.40;0.70;;;;;;;11.53;73.20;99849.25;110006;1280;22457;-59
2023/08/23 02:35:14;;;;;;;1.30;0.80;;;;;;;11.47;73.09;99846.23;109879;1276;99502;-59
2023/08/23 02:37:43;;;;;;;1.60;0.80;;;;;;;11.42;73.11;99847.12;109896;1279;23078;-59
2023/08/23 02:40:13;;;;;;;0.80;0.60;;;;;;;11.39;73.23;99846.92;109884;1280;100141;-59
2023/08/23 02:42:42;;;;;;;2.40;1.00;;;;;;;11.37;73.50;99852.96;109968;1277;22274;-59
2023/08/23 02:45:11;;;;;;;2.10;1.00;;;;;;;11.35;73.62;99853.56;109895;1277;99628;-59
2023/08/23 02:47:39;;;;;;;3.50;0.80;;;;;;;11.32;73.54;99856.54;109974;1276;23037;-59
2023/08/23 02:50:08;;;;;;;1.60;0.80;;;;;;;11.28;73.80;99857.39;110021;1276;22283;-59
2023/08/23 02:52:37;;;;;;;1.50;1.00;;;;;;;11.28;73.70;99857.26;109797;1280;99750;-60
2023/08/23 02:55:05;;;;;;;3.50;0.90;;;;;;;11.25;73.53;99858.40;109995;1277;22288;-59
2023/08/23 02:57:34;;;;;;;7.10;1.10;;;;;;;11.23;73.77;99846.14;109892;1282;99579;-59
2023/08/23 03:00:03;;;;;;;2.00;0.80;;;;;;;11.23;74.10;99848.58;109909;1278;22151;-59
2023/08/23 03:02:32;;;;;;;2.10;0.80;;;;;;;11.26;74.18;99850.40;109964;1277;22114;-60
2023/08/23 03:05:01;;;;;;;2.10;0.80;;;;;;;11.29;74.54;99849.70;109904;1276;99552;-59
2023/08/23 03:07:29;;;;;;;1.90;0.70;;;;;;;11.30;74.58;99851.39;110008;1276;22278;-59
2023/08/23 03:09:58;;;;;;;1.80;1.10;;;;;;;11.31;74.86;99852.89;109847;1278;99461;-59
2023/08/23 03:12:27;;;;;;;1.00;0.70;;;;;;;11.31;74.84;99852.73;109907;1280;23428;-59
2023/08/23 03:14:55;;;;;;;1.80;0.80;;;;;;;11.30;74.54;99855.40;109954;1276;22300;-59
2023/08/23 03:17:24;;;;;;;2.90;0.90;;;;;;;11.29;74.66;99857.20;109933;1277;100048;-59
2023/08/23 03:19:53;;;;;;;2.50;0.80;;;;;;;11.27;74.55;99856.42;109918;1280;22798;-59
2023/08/23 03:22:22;;;;;;;2.40;1.60;;;;;;;11.18;74.18;99858.55;109945;1276;99453;-59
2023/08/23 03:24:51;;;;;;;2.50;0.90;;;;;;;11.17;74.73;99860.73;110025;1276;23156;-59
2023/08/23 03:27:20;;;;;;;5.20;1.20;;;;;;;11.17;75.18;99857.25;109962;1276;99624;-60
2023/08/23 03:29:48;;;;;;;4.90;1.30;;;;;;;11.20;75.67;99861.46;109971;1277;22302;-59
2023/08/23 03:32:19;;;;;;;1.40;0.90;;;;;;;11.24;75.70;99858.83;109994;1276;22297;-60
2023/08/23 03:34:47;;;;;;;1.50;0.60;;;;;;;11.29;76.02;99852.31;109806;1280;99703;-60
2023/08/23 03:37:16;;;;;;;2.40;0.80;;;;;;;11.32;75.88;99855.49;110017;1274;22361;-59
2023/08/23 03:39:44;;;;;;;1.20;0.70;;;;;;;11.30;75.83;99856.95;109893;1276;100683;-59
2023/08/23 03:42:15;;;;;;;4.40;0.90;;;;;;;11.28;75.74;99854.42;109978;1283;22280;-59
2023/08/23 03:44:44;;;;;;;5.40;1.60;;;;;;;11.26;75.48;99853.51;109923;1277;22180;-59
2023/08/23 03:47:13;;;;;;;2.60;0.80;;;;;;;11.24;75.54;99859.69;109934;1277;99470;-59
2023/08/23 03:49:41;;;;;;;1.00;0.70;;;;;;;11.22;75.56;99855.63;109961;1280;22161;-59
2023/08/23 03:52:10;;;;;;;1.00;0.60;;;;;;;11.19;75.74;99853.64;109846;1276;100048;-60
2023/08/23 03:54:39;;;;;;;2.80;1.00;;;;;;;11.18;76.01;99853.00;109935;1276;22264;-60
2023/08/23 03:57:07;;;;;;;1.60;0.80;;;;;;;11.21;76.16;99854.27;109892;1276;22272;-60
2023/08/23 03:59:36;;;;;;;2.70;1.60;;;;;;;11.23;76.30;99852.44;109982;1273;22147;-60
2023/08/23 04:02:05;;;;;;;3.20;0.90;;;;;;;11.27;76.54;99855.20;109880;1277;22195;-60
2023/08/23 04:04:33;;;;;;;1.50;0.80;;;;;;;11.31;76.56;99856.58;109726;1276;100216;-60
2023/08/23 04:07:02;;;;;;;1.70;1.10;;;;;;;11.34;76.47;99856.08;109788;1277;23101;-59
2023/08/23 04:09:41;;;;;;;6.60;1.10;;;;;;;11.37;76.45;99858.21;109739;1279;99552;-59
2023/08/23 04:12:10;;;;;;;2.90;0.80;;;;;;;11.38;76.74;99860.72;109874;1276;22280;-59
2023/08/23 04:14:38;;;;;;;2.10;1.10;;;;;;;11.41;76.77;99855.71;110000;1276;22332;-59
2023/08/23 04:17:07;;;;;;;1.40;0.80;;;;;;;11.47;76.74;99851.46;109828;1268;99531;-59
2023/08/23 04:19:36;;;;;;;1.90;0.80;;;;;;;11.53;76.99;99850.30;109982;1277;22363;-59
2023/08/23 04:22:04;;;;;;;1.50;0.60;;;;;;;11.59;77.14;99852.08;109888;1276;99489;-59
2023/08/23 04:24:33;;;;;;;1.20;0.60;;;;;;;11.63;77.07;99855.00;110024;1277;22126;-59
2023/08/23 04:27:04;;;;;;;2.40;0.90;;;;;;;11.69;77.10;99854.73;109975;1277;23416;-59
2023/08/23 04:29:33;;;;;;;3.40;0.90;;;;;;;11.74;77.28;99859.70;109894;1276;98255;-59
2023/08/23 04:32:09;;;;;;;3.70;1.20;;;;;;;11.81;77.34;99860.36;109832;1276;22349;-59
2023/08/23 04:34:41;;;;;;;2.10;0.70;;;;;;;11.92;77.57;99854.11;109770;1277;99495;-59
2023/08/23 04:37:10;;;;;;;2.20;0.90;;;;;;;12.02;77.66;99853.81;109943;1276;22342;-59
2023/08/23 04:39:39;;;;;;;2.70;1.50;;;;;;;12.12;77.69;99852.56;109788;1277;98678;-59
2023/08/23 04:42:08;;;;;;;5.70;1.00;;;;;;;12.23;77.79;99847.10;109928;1276;22275;-59
2023/08/23 04:44:36;;;;;;;2.80;0.90;;;;;;;12.35;77.88;99845.95;109998;1276;22155;-60
2023/08/23 04:47:06;;;;;;;2.30;1.00;;;;;;;12.43;77.81;99844.33;109902;1276;99473;-59
2023/08/23 04:49:35;;;;;;;1.50;0.80;;;;;;;12.51;77.70;99846.86;109948;1276;22320;-59
2023/08/23 04:52:04;;;;;;;4.10;1.00;;;;;;;12.60;77.70;99851.28;109931;1276;99464;-59
2023/08/23 04:54:33;;;;;;;3.10;1.00;;;;;;;12.69;77.73;99845.02;109998;1276;22166;-59
2023/08/23 04:57:01;;;;;;;5.80;1.20;;;;;;;12.79;77.80;99843.11;109923;1271;22296;-58
2023/08/23 04:59:30;;;;;;;5.00;1.50;;;;;;;12.87;78.08;99843.52;109936;1276;99468;-59
2023/08/23 05:01:59;;;;;;;1.80;0.90;;;;;;;13.00;78.34;99851.05;110020;1276;22795;-59
2023/08/23 05:04:27;;;;;;;1.70;0.70;;;;;;;13.11;78.43;99852.67;109932;1276;99962;-59
2023/08/23 05:06:56;;;;;;;6.50;1.00;;;;;;;13.22;78.78;99859.61;109915;1277;22309;-59
2023/08/23 05:09:28;;;;;;;4.60;1.40;;;;;;;13.38;79.03;99855.22;109882;1276;99787;-59
2023/08/23 05:11:58;;;;;;;2.10;1.00;;;;;;;13.56;79.06;99854.55;109963;1276;22356;-58
2023/08/23 05:14:27;;;;;;;4.70;1.40;;;;;;;13.73;79.23;99856.40;109892;1276;23119;-59
2023/08/23 05:16:56;;;;;;;2.40;0.90;;;;;;;13.90;79.58;99858.33;109936;1276;100257;-59
2023/08/23 05:19:24;;;;;;;2.10;1.00;;;;;;;14.10;79.85;99860.31;110001;1276;22430;-59
2023/08/23 05:21:53;;;;;;;7.60;0.90;;;;;;;14.31;79.85;99861.50;109917;1276;99643;-59
2023/08/23 05:24:21;;;;;;;2.70;1.00;;;;;;;14.53;80.23;99867.19;110027;1276;22166;-58
2023/08/23 05:26:50;;;;;;;1.50;0.60;;;;;;;14.78;80.46;99868.47;110007;1276;23399;-59
2023/08/23 05:29:18;;;;;;;2.20;0.80;;;;;;;15.03;80.56;99866.20;109956;1276;99122;-59
2023/08/23 05:31:47;;;;;;;1.70;0.70;;;;;;;15.24;80.74;99867.48;110016;1277;22771;-59
2023/08/23 05:34:16;;;;;;;24.70;5.00;;;;;;;15.47;80.79;99873.71;109933;1274;99580;-59
2023/08/23 05:36:44;;;;;;;5.60;1.50;;;;;;;15.68;80.86;99872.35;109936;1276;22139;-59
2023/08/23 05:39:13;;;;;;;3.50;1.00;;;;;;;15.88;81.00;99871.90;109825;1275;99974;-59
2023/08/23 05:41:42;;;;;;;1.60;0.70;;;;;;;16.09;81.15;99866.47;109902;1277;22371;-59
2023/08/23 05:44:11;;;;;;;2.20;0.60;;;;;;;16.29;80.95;99868.27;109942;1273;22300;-59
2023/08/23 05:46:39;;;;;;;0.70;0.50;;;;;;;16.48;80.75;99865.70;109956;1279;99473;-59
2023/08/23 05:49:08;;;;;;;1.50;0.90;;;;;;;16.66;80.88;99864.31;109937;1277;22311;-59
2023/08/23 05:51:37;;;;;;;2.80;0.60;;;;;;;16.87;80.82;99865.52;109719;1277;99799;-59
2023/08/23 05:54:06;;;;;;;1.70;0.70;;;;;;;17.05;80.74;99864.56;110039;1276;22395;-59
2023/08/23 05:56:56;;;;;;;2.90;1.00;;;;;;;17.23;80.66;99863.79;109960;1265;22281;-59
2023/08/23 05:59:29;;;;;;;1.90;1.00;;;;;;;17.43;80.56;99867.95;109930;1276;99832;-59
2023/08/23 06:01:58;;;;;;;4.70;1.50;;;;;;;17.60;80.52;99864.03;110004;1276;22192;-59
2023/08/23 06:04:27;;;;;;;4.10;1.30;;;;;;;17.76;80.29;99863.09;109664;1276;346684;-59
2023/08/23 06:06:56;;;;;;;1.30;0.70;;;;;;;17.90;80.34;99861.52;109948;1276;22310;-60
2023/08/23 06:09:42;;;;;;;2.80;0.70;;;;;;;18.07;80.23;99859.89;109263;1282;99792;-59
2023/08/23 06:12:11;;;;;;;1.80;0.90;;;;;;;18.26;80.25;99863.88;109617;1275;22292;-61
2023/08/23 06:14:40;;;;;;;1.60;0.80;;;;;;;18.43;80.00;99862.57;109579;1283;22323;-61
2023/08/23 06:17:26;;;;;;;5.20;1.10;;;;;;;18.60;79.96;99863.55;109489;1280;99653;-61
2023/08/23 06:20:02;;;;;;;1.50;0.60;;;;;;;18.76;79.72;99863.88;109561;1281;22468;-59
2023/08/23 06:22:34;;;;;;;3.00;0.80;;;;;;;18.87;79.61;99864.71;109436;1283;99578;-59
2023/08/23 06:25:05;;;;;;;1.90;1.00;;;;;;;19.01;79.45;99864.52;109728;1283;22450;-58
2023/08/23 06:27:34;;;;;;;1.60;0.80;;;;;;;19.14;79.24;99865.64;109552;1270;100312;-61
2023/08/23 06:30:04;;;;;;;2.50;0.90;;;;;;;19.29;79.31;99862.61;109557;1280;22261;-61
2023/08/23 06:32:33;;;;;;;3.80;0.90;;;;;;;19.49;79.17;99864.36;109598;1280;22149;-61
2023/08/23 06:35:05;;;;;;;2.40;0.90;;;;;;;19.68;78.94;99854.89;109679;1276;99711;-61
2023/08/23 06:37:34;;;;;;;4.10;1.10;;;;;;;19.83;78.67;99854.32;109923;1279;22376;-60
2023/08/23 06:40:04;;;;;;;1.30;0.60;;;;;;;19.99;78.46;99855.66;109903;1276;99513;-62
2023/08/23 06:42:32;;;;;;;2.20;0.70;;;;;;;20.15;78.25;99853.73;109951;1276;22332;-64
2023/08/23 06:45:02;;;;;;;6.40;1.40;;;;;;;20.36;78.15;99850.31;109916;1277;22185;-62
2023/08/23 06:47:30;;;;;;;4.20;0.70;;;;;;;20.57;77.64;99844.71;109925;1277;99316;-61
2023/08/23 06:49:59;;;;;;;1.70;0.40;;;;;;;20.75;77.52;99844.84;110002;1276;22309;-60
2023/08/23 06:52:28;;;;;;;5.10;2.10;;;;;;;21.00;77.33;99848.35;109933;1276;100647;-60
2023/08/23 06:54:56;;;;;;;2.00;0.70;;;;;;;21.16;76.76;99852.51;110016;1276;22255;-60
2023/08/23 06:57:28;;;;;;;2.70;0.60;;;;;;;21.31;76.31;99848.95;109946;1276;99492;-61
2023/08/23 06:59:58;;;;;;;5.20;1.00;;;;;;;21.46;76.10;99847.21;110044;1276;22286;-59
2023/08/23 07:02:26;;;;;;;4.70;0.70;;;;;;;21.61;75.76;99842.67;110045;1276;23142;-60
2023/08/23 07:04:55;;;;;;;13.90;1.70;;;;;;;21.80;75.45;99850.73;109950;1276;99945;-59
2023/08/23 07:07:24;;;;;;;4.80;1.30;;;;;;;21.96;74.99;99853.13;109989;1276;22201;-60
2023/08/23 07:09:53;;;;;;;3.70;1.20;;;;;;;22.16;74.37;99852.70;109749;1276;99756;-60
2023/08/23 07:12:21;;;;;;;3.30;1.00;;;;;;;22.40;74.16;99854.48;109930;1277;23247;-60
2023/08/23 07:14:50;;;;;;;1.30;0.90;;;;;;;22.60;73.91;99858.30;109816;1276;22305;-60
2023/08/23 07:17:19;;;;;;;3.30;1.10;;;;;;;22.73;73.34;99860.94;109905;1276;99664;-60
2023/08/23 07:19:48;;;;;;;2.50;0.80;;;;;;;22.86;72.94;99859.71;109953;1276;22180;-60
2023/08/23 07:22:20;;;;;;;12.70;2.20;;;;;;;23.06;72.65;99860.70;109816;1279;99695;-60
2023/08/23 07:28:32;;;;;;;5.50;1.00;;;;;;;23.85;71.95;99865.85;109742;1268;99756;-60
2023/08/23 07:31:02;;;;;;;0.80;0.50;;;;;;;24.03;71.23;99866.39;110035;1276;22418;-60
2023/08/23 07:33:37;;;;;;;6.00;1.70;;;;;;;24.45;70.98;99867.16;109910;1277;99538;-62
2023/08/23 07:36:09;;;;;;;4.30;0.70;;;;;;;25.25;70.95;99860.66;110003;1276;22276;-61
2023/08/23 07:38:39;;;;;;;6.50;1.50;;;;;;;25.66;69.56;99855.52;109913;1280;22183;-61
2023/08/23 07:41:09;;;;;;;2.40;0.60;;;;;;;25.87;68.72;99855.00;109744;1277;100078;-61
2023/08/23 07:43:38;;;;;;;4.60;0.80;;;;;;;26.18;68.29;99857.89;110041;1276;22313;-58
2023/08/23 07:46:07;;;;;;;7.20;1.30;;;;;;;27.12;69.40;99859.23;109938;1276;100980;-59
2023/08/23 07:48:59;;;;;;;8.30;1.20;;;;;;;28.57;69.16;99862.48;110035;1276;23695;-59
2023/08/23 07:51:38;;;;;;;2.90;1.00;;;;;;;30.60;68.97;99861.24;109952;1276;99549;-60
2023/08/23 07:54:32;;;;;;;;;;;;;;;;;;;;;
2023/08/23 07:57:15;;;;;;;2.60;0.60;;;;;;;33.78;66.42;99868.93;109866;1277;22233;-60
2023/08/23 07:59:50;;;;;;;24.20;4.00;;;;;;;35.61;64.76;99870.48;109820;1276;23440;-59
2023/08/23 08:02:19;;;;;;;7.20;1.40;;;;;;;37.72;62.35;99868.32;110056;1275;22302;-60
2023/08/23 08:04:47;;;;;;;7.80;1.60;;;;;;;39.46;60.23;99865.98;109914;1276;100055;-60
2023/08/23 08:07:17;;;;;;;3.40;0.90;;;;;;;40.82;57.81;99860.23;109904;1277;22303;-60
2023/08/23 08:10:06;;;;;;;1.70;0.50;;;;;;;42.48;55.21;99857.45;109961;1276;99472;-60
2023/08/23 08:12:44;;;;;;;1.70;0.40;;;;;;;43.97;52.66;99859.98;109964;1277;22343;-60
2023/08/23 08:15:22;;;;;;;2.10;0.40;;;;;;;44.10;47.60;99866.26;109974;1276;22161;-59
2023/08/23 08:17:52;;;;;;;1.00;0.50;;;;;;;44.45;46.14;99869.95;110037;1277;22153;-60
2023/08/23 08:20:24;;;;;;;1.60;0.50;;;;;;;44.97;44.28;99866.94;109997;1276;22118;-59
2023/08/23 08:22:53;;;;;;;1.10;0.50;;;;;;;45.67;42.11;99870.34;109930;1276;100007;-60
2023/08/23 08:25:22;;;;;;;5.00;1.20;;;;;;;45.72;39.44;99868.76;110025;1276;22276;-60
2023/08/23 08:27:51;;;;;;;2.10;0.30;;;;;;;45.17;38.22;99872.98;109968;1277;99669;-60
2023/08/23 08:30:29;;;;;;;7.40;1.50;;;;;;;44.95;37.68;99871.70;110001;1277;22114;-60
2023/08/23 08:33:03;;;;;;;5.90;1.30;;;;;;;44.67;35.46;99870.95;109836;1278;22342;-61
2023/08/23 08:35:32;;;;;;;4.20;1.00;;;;;;;44.05;33.52;99866.14;109847;1268;99460;-58
2023/08/23 08:38:00;;;;;;;4.00;1.10;;;;;;;43.83;33.56;99867.71;109924;1276;22407;-60
2023/08/23 08:40:29;;;;;;;3.80;0.90;;;;;;;43.86;32.09;99867.23;109948;1276;99505;-58
2023/08/23 08:43:01;;;;;;;3.90;0.60;;;;;;;44.82;32.63;99867.77;109976;1275;22183;-60
2023/08/23 08:45:30;;;;;;;2.60;0.80;;;;;;;46.29;31.47;99871.69;109925;1275;100008;-58
2023/08/23 08:47:59;;;;;;;2.50;0.80;;;;;;;47.23;29.57;99870.46;109997;1273;22159;-58
2023/08/23 08:50:32;;;;;;;1.20;0.70;;;;;;;48.46;29.17;99866.95;109962;1276;22310;-58
2023/08/23 08:53:05;;;;;;;6.40;1.80;;;;;;;50.07;27.85;99864.36;109923;1275;99612;-58
2023/08/23 08:55:35;;;;;;;1.00;0.90;;;;;;;50.38;26.50;99866.85;109995;1276;22292;-58
2023/08/23 08:58:05;;;;;;;2.20;1.10;;;;;;;51.06;25.77;99865.66;109896;1276;99706;-59
2023/08/23 09:00:35;;;;;;;2.60;1.80;;;;;;;52.32;25.31;99860.94;109964;1276;22476;-59
2023/08/23 09:03:04;;;;;;;3.50;2.00;;;;;;;53.20;23.91;99857.47;109891;1277;22261;-59
2023/08/23 09:05:33;;;;;;;5.00;2.20;;;;;;;53.86;22.83;99860.30;109964;1276;99444;-58
2023/08/23 09:08:02;;;;;;;2.70;2.50;;;;;;;53.85;21.88;99863.31;110038;1277;22313;-58
2023/08/23 09:10:31;;;;;;;5.00;3.10;;;;;;;53.63;20.96;99860.96;109920;1276;99761;-58
2023/08/23 09:13:00;;;;;;;8.10;4.20;;;;;;;53.55;20.74;99860.12;110046;1276;23125;-58
2023/08/23 09:15:29;;;;;;;5.50;3.90;;;;;;;54.45;20.22;99859.96;109986;1280;99611;-58
2023/08/23 09:18:02;;;;;;;4.40;4.10;;;;;;;55.67;19.21;99853.93;110027;1277;22310;-58
2023/08/23 09:20:31;;;;;;;5.50;5.20;;;;;;;55.62;18.67;99850.24;109987;1276;23124;-59
2023/08/23 09:22:59;;;;;;;6.70;6.30;;;;;;;56.26;18.41;99842.11;109942;1274;100846;-58
2023/08/23 09:25:27;;;;;;;9.60;7.30;;;;;;;56.07;16.90;99845.55;109958;1277;23094;-59
2023/08/23 09:27:57;;;;;;;7.50;6.90;;;;;;;55.17;16.03;99838.75;109929;1276;100098;-58
2023/08/23 09:30:26;;;;;;;9.00;8.30;;;;;;;54.35;15.55;99841.70;109999;1277;22251;-58
2023/08/23 09:32:57;;;;;;;9.10;8.50;;;;;;;54.05;15.64;99841.96;110042;1264;23022;-59
2023/08/23 09:35:27;;;;;;;9.30;8.80;;;;;;;54.87;15.64;99837.98;109902;1276;99511;-58
2023/08/23 09:37:55;;;;;;;10.40;9.80;;;;;;;55.65;15.40;99841.27;110000;1276;22299;-59
2023/08/23 09:40:28;;;;;;;12.30;11.40;;;;;;;56.70;15.40;99842.80;109940;1263;99678;-60
2023/08/23 09:42:56;;;;;;;34.30;16.20;;;;;;;57.14;14.51;99843.75;109986;1277;22176;-59
2023/08/23 09:45:28;;;;;;;14.20;13.40;;;;;;;57.46;14.27;99846.91;109924;1274;100577;-59
2023/08/23 09:48:00;;;;;;;16.30;15.30;;;;;;;56.62;13.45;99842.52;110040;1276;22309;-59
2023/08/23 09:50:29;;;;;;;15.90;15.10;;;;;;;56.01;13.30;99843.86;110007;1277;22221;-59
2023/08/23 09:53:06;;;;;;;18.00;16.10;;;;;;;55.76;13.51;99844.98;109894;1276;101720;-59
2023/08/23 09:55:35;;;;;;;15.10;14.30;;;;;;;55.79;13.44;99843.17;110039;1276;22293;-60
2023/08/23 09:58:04;;;;;;;14.90;14.10;;;;;;;56.11;13.32;99843.80;109949;1276;100059;-59
2023/08/23 10:00:37;;;;;;;17.10;8.70;;;;;;;53.64;12.45;99840.88;110040;1276;22261;-59
2023/08/23 10:03:08;;;;;;;5.60;4.30;;;;;;;49.18;12.69;99836.02;110007;1277;22299;-58
2023/08/23 10:05:38;;;;;;;11.20;4.80;;;;;;;47.48;13.46;99836.48;109952;1277;99926;-59
2023/08/23 10:08:09;;;;;;;9.70;4.50;;;;;;;49.54;13.99;99839.77;109995;1278;23113;-59
2023/08/23 10:10:42;;;;;;;3.40;3.20;;;;;;;51.49;13.79;99843.30;109928;1264;99536;-59
2023/08/23 10:13:10;;;;;;;9.90;6.90;;;;;;;52.78;13.80;99844.67;110045;1278;22259;-59
2023/08/23 10:15:39;;;;;;;8.30;6.00;;;;;;;54.38;13.77;99844.13;109970;1276;99637;-58
2023/08/23 10:18:12;;;;;;;9.00;8.30;;;;;;;55.70;13.38;99845.42;110011;1276;22127;-59
2023/08/23 10:20:41;;;;;;;7.70;7.30;;;;;;;55.55;13.13;99846.36;110026;1277;22167;-59
2023/08/23 10:23:18;;;;;;;4.30;4.00;;;;;;;53.38;12.73;99846.59;109954;1277;99558;-58
2023/08/23 10:25:47;;;;;;;2.60;2.50;;;;;;;49.76;12.78;99844.20;109973;1277;22149;-59
2023/08/23 10:28:18;;;;;;;1.60;1.50;;;;;;;47.38;13.15;99840.81;109944;1276;99468;-59
2023/08/23 10:30:50;;;;;;;0.60;0.60;;;;;;;45.27;13.52;99838.93;110017;1277;22128;-58
2023/08/23 10:33:20;;;;;;;1.00;0.70;;;;;;;44.47;14.16;99835.86;110018;1277;22301;-58
2023/08/23 10:35:49;;;;;;;1.10;0.60;;;;;;;44.95;14.63;99840.21;110030;1277;23124;-58
2023/08/23 10:38:24;;;;;;;1.30;0.70;;;;;;;47.31;14.84;99831.54;109988;1278;22082;-59
2023/08/23 10:40:54;;;;;;;2.40;1.50;;;;;;;50.45;14.86;99835.29;109939;1277;99856;-58
2023/08/23 10:43:25;;;;;;;2.50;1.80;;;;;;;52.52;14.37;99835.98;110015;1276;22297;-59
2023/08/23 10:46:06;;;;;;;4.00;1.40;;;;;;;51.68;14.06;99838.09;109857;1277;99680;-59
2023/08/23 10:48:39;;;;;;;1.80;1.70;;;;;;;51.51;13.99;99833.69;110008;1276;22285;-58
2023/08/23 10:51:08;;;;;;;1.80;1.70;;;;;;;50.32;13.63;99832.35;109968;1277;23054;-59
2023/08/23 10:53:39;;;;;;;2.30;2.10;;;;;;;49.65;14.16;99830.39;109893;1277;100510;-59
2023/08/23 10:56:10;;;;;;;3.40;3.10;;;;;;;51.62;14.16;99831.42;109968;1276;23613;-59
2023/08/23 10:58:38;;;;;;;4.60;4.30;;;;;;;53.19;13.90;99835.73;109950;1272;99519;-59
2023/08/23 11:01:10;;;;;;;3.30;3.10;;;;;;;52.69;13.60;99831.29;109988;1278;22131;-59
2023/08/23 11:03:42;;;;;;;3.10;3.00;;;;;;;50.46;13.48;99830.92;109935;1277;99569;-60
2023/08/23 11:06:10;;;;;;;3.90;3.60;;;;;;;51.42;14.03;99826.79;109904;1277;22148;-59
2023/08/23 11:08:43;;;;;;;18.10;7.30;;;;;;;53.72;13.76;99824.71;109989;1277;23126;-59
2023/08/23 11:11:12;;;;;;;6.80;6.40;;;;;;;55.20;13.49;99824.33;109889;1279;99952;-59
2023/08/23 11:13:41;;;;;;;6.50;6.10;;;;;;;55.60;12.84;99826.20;110022;1277;22880;-58
2023/08/23 11:16:10;;;;;;;21.10;10.10;;;;;;;55.64;12.71;99826.92;109886;1277;99491;-59
2023/08/23 11:18:39;;;;;;;12.70;11.80;;;;;;;57.30;12.72;99829.61;110001;1276;22246;-59
2023/08/23 11:21:07;;;;;;;9.40;8.50;;;;;;;56.31;11.64;99825.77;109996;1274;22182;-59
2023/08/23 11:23:37;;;;;;;8.30;5.40;;;;;;;52.30;11.95;99822.93;109917;1277;99494;-59
2023/08/23 11:26:05;;;;;;;6.60;2.80;;;;;;;49.00;12.41;99822.89;109975;1277;22254;-58
2023/08/23 11:28:41;;;;;;;4.80;1.50;;;;;;;45.89;12.64;99825.86;109946;1276;99457;-58
2023/08/23 11:31:09;;;;;;;8.20;1.80;;;;;;;43.62;13.29;99826.33;110038;1277;23064;-58
2023/08/23 11:33:44;;;;;;;8.20;1.70;;;;;;;45.46;14.11;99822.84;109941;1277;100112;-58
2023/08/23 11:36:18;;;;;;;7.70;2.10;;;;;;;47.66;13.85;99821.02;109998;1277;22130;-58
2023/08/23 11:38:48;;;;;;;6.30;1.80;;;;;;;47.87;14.03;99821.58;110031;1273;22161;-58
2023/08/23 11:41:28;;;;;;;4.60;2.10;;;;;;;47.89;14.03;99819.64;109929;1277;99374;-59
2023/08/23 11:43:57;;;;;;;3.60;1.90;;;;;;;48.62;14.35;99822.54;109922;1280;22127;-59
2023/08/23 11:46:27;;;;;;;2.50;2.20;;;;;;;49.70;14.27;99823.44;109927;1277;99434;-58